Beatrice, AL (36425)

7:06 AM CDT on July 26, 2014 (GMT -0500)
Middleton (KGZH) Elev 256 ft | 31.42 °N, 87.04 °W | Change Station

Current weather conditions updated 13 minutes ago

Partly Cloudy
Partly Cloudy
73 °F
Feels Like 73 °F
N
0
Wind Variable Wind from North

Today is forecast to be Warmer than yesterday.

Today
High -- | Low -- °F
--% Chance of Precip.
Yesterday
High -- | Low -- °F
Precip. -- in
6:00 AM 7:49 PM
Waning Crescent, 0% visible
Pressure 30.04 in
Visibility 4.0 miles
Clouds Few 300 ft
Dew Point 71 °F
Humidity 93%
Rainfall 0.00 in
Snow Depth Not available.
UV 0 out of 12
Pollen 4.30 out of 12
Air Quality Not available.
Flu Activity Not available.
METAR KGZH 261153Z AUTO 00000KT 4SM BR FEW003 23/22 A3005 RMK AO2 SLP171 T02280217 10250 20217 53013

More Conditions Fewer Conditions

Pressure 30.04 in
Visibility 4.0 miles
Clouds Few 300 ft
Dew Point 71 °F
Humidity 93%
Rainfall 0.00 in
Snow Depth Not available.
UV 0 out of 12
Pollen 4.30 out of 12
Air Quality Not available.
Flu Activity Not available.
METAR KGZH 261153Z AUTO 00000KT 4SM BR FEW003 23/22 A3005 RMK AO2 SLP171 T02280217 10250 20217 53013

More Conditions Fewer Conditions

10-Day Weather Forecast

Almanac

Astronomy

Jul. 26, 2014 Rise Set
Actual Time 6:00 AM CDT 7:49 PM CDT
Civil Twilight 5:33 AM CDT 8:16 PM CDT
Nautical Twilight 5:00 AM CDT 8:48 PM CDT
Astronomical Twilight 4:26 AM CDT 9:22 PM CDT
Moon 5:48 AM CDT 7:29 PM CDT
Length of Visible Light 14h 42m
Length of Day
13h 48m
Tomorrow will be 1m 18s shorter.
Waning Crescent, 0% of the Moon is Illuminated
Today
Waning Crescent
Jul 26
New
Aug 3
First Quarter
Aug 10
Full
Aug 17
Last Quarter

Today's Extremes

State Highs State Lows

Community

WunderPhotos

Upload Photos

1,737,551 photos uploaded!

Nearby

Snow Depth

Station Depth Elevation
No new snow has been reported.

Earthquake Activity

City Distance Mag. Time & Date
No recent earthquake activity has been reported nearby.
Minimum magnitude displayed is 2.5.

Coastal Water Temperatures

Place Temperature
No Stations Reporting

Nearby Weather Stations

Station Location Temp. Heat Index Dew Point Humidity Wind Precip. Elev Updated Type
HADS MONROEVILLE , Monroeville, AL 77 °F 78 °F 72 °F 86% West  at  2 mph 0.00 in / hr 129 ft 5:30 AM CDT MADIS

Show More Stations Show Fewer Stations